METAR Data
IDs: Format: Raw Decoded Include TAF

Data at: 2103 UTC 02 Aug 2021

LEPP 022030Z 31007KT CAVOK 17/13 Q1019